Scallorn, Texas
Current Conditions -  °F | °C
As of 9:15 PM on Thursday 27 Nov 2014 (Local Time) from KLZZ Reporting Station
Clear Clear  
Wind Chill: 43°   Ceiling: Unl
Heat Index: 43°   Visibility: 10mi
Dew Point: 32°   Wind: 0mph
Humidity: 65%   Direction: NA
Pressure: 30.38"   Gusts: NA
Location:  31.2111°N, 98.4001°W
Report Text: KLZZ 280315Z AUTO 00000KT 10SM CLR 06/00 A3038 RMK AO2 T00630001
Loading
Personal Weather Stations






























Interactive Weather Map New forecast layout! Learn more

10-Day Weather Forecast

Advertisements
Track Severe Weather on mobile